Glen Hope, PA

6:12 PM EST en Diciembre 17, 2014 (GMT -0500)
Indiana County-Stewart | Change Station
CLOSE
Current Station
Aeropuerto
Location: Indiana,
Altura: 1407 ft
Estaciones meteorológicas cercanas

Alt 1407 ft 40.63 °N, 79.11 °W | Updated 17 minutes ago

Nublado
Nublado
32 ° F
Sensación térmica 22 ° F
N
14
Viento Variable Viento desde ONO

Hoy
Alta -- | Baja -- ° F
--% Posibilidad de precipitaciones
Ayer
Alta -- | Baja -- ° F
Precip. -- pul
7:32 AM 4:47 PM
Creciente menguante, 19% visible
Presión 30.07 pul
Visibilidad 10.0 Millas
Nubes Nublado 2000 ft
Vientos helados 22 ° F
Punto de rocío 27 ° F
Humedad 80%
Precipitaciones 0.00 pul
Espesor de la nieve No disponible.
UV 0 de una escala de 12
Polen .10 de una escala de 12
Calidad del aire No disponible.
Flu Activity No disponible.
METAR KIDI 172255Z AUTO 30012KT 10SM OVC020 M00/M03 A3007 RMK A01

More Conditions Fewer Conditions

Presión 30.07 pul
Visibilidad 10.0 Millas
Nubes Nublado 2000 ft
Vientos helados 22 ° F
Punto de rocío 27 ° F
Humedad 80%
Precipitaciones 0.00 pul
Espesor de la nieve No disponible.
UV 0 de una escala de 12
Polen .10 de una escala de 12
Calidad del aire No disponible.
Flu Activity No disponible.
METAR KIDI 172255Z AUTO 30012KT 10SM OVC020 M00/M03 A3007 RMK A01

More Conditions Fewer Conditions

10-Day Weather Forecast

Almanac

Astronomía

Dec. 17, 2014 Salida Puesta
Hora real
Crepúsculo civil
Crepúsculo náutico
Crepúsculo astronómico
Luna
Horas de luz
Horas de luz
Tomorrow will be .
, % of the Moon is Illuminated

Extremos de hoy

Máximos del estado Bajos del estado

Community

WunderPhotos

Upload Photos

1,778,822 ¡fotos cargadas!

WunderBlogs® & News

Nearby

Calidad del aire

  Calidad del aire Índice AQ Contaminante
Not available.

Grosos de nieve

Estación Profundido Altura

Actividad de terremotos

Ciudad Distance Mag. Tiempo y dato
Magnitud mínima muestra es 2,5.

Temperaturas de aguas costeras

Lugar Temperatura

Estaciones meteorológicas cercanas